Time;durP1;ratioP1;P1;durP2;ratioP2;P2;SDS_P1;SDS_P2;PMS_P1;PMS_P2;Temp;Humidity;BMP_temperature;BMP_pressure;BME280_temperature;BME280_humidity;BME280_pressure;Samples;Min_cycle;Max_cycle;Signal;HPM_P1;HPM_P2
2021/01/12 00:01:06;;;;;;;29.18;16.82;;;;;;;3.23;58.74;101151.90;1731283;82;21198;-51
2021/01/12 00:03:34;;;;;;;27.22;16.27;;;;;;;3.21;58.19;101154.48;1751558;80;21585;-51
2021/01/12 00:06:02;;;;;;;27.98;16.77;;;;;;;3.15;58.24;101156.11;1731305;82;21506;-49
2021/01/12 00:08:30;;;;;;;26.12;15.80;;;;;;;3.15;58.32;101153.94;1751178;80;21566;-50
2021/01/12 00:10:59;;;;;;;27.65;16.32;;;;;;;3.15;58.34;101161.48;1730995;81;20959;-51
2021/01/12 00:13:30;;;;;;;22.13;14.90;;;;;;;3.16;58.34;101160.45;1751734;80;21387;-51
2021/01/12 00:15:58;;;;;;;21.93;13.43;;;;;;;3.21;58.23;101159.34;1730770;82;21014;-51
2021/01/12 00:20:43;;;;;;;22.30;13.57;;;;;;;3.24;57.74;101153.55;1776458;79;22806;-50
2021/01/12 00:23:11;;;;;;;20.90;12.90;;;;;;;3.18;57.85;101153.00;1749234;80;20973;-50
2021/01/12 00:25:40;;;;;;;22.30;14.00;;;;;;;3.25;57.62;101159.79;1740111;81;20977;-50
2021/01/12 00:28:08;;;;;;;21.77;13.22;;;;;;;3.22;57.48;101160.17;1721795;83;21602;-49
2021/01/12 00:30:36;;;;;;;19.15;12.70;;;;;;;3.23;57.37;101156.45;1737716;80;21122;-50
2021/01/12 00:33:05;;;;;;;18.73;12.82;;;;;;;3.24;57.46;101159.45;1752132;81;21121;-53
2021/01/12 00:35:32;;;;;;;14.55;9.23;;;;;;;3.28;57.06;101152.14;1752091;81;20960;-55
2021/01/12 00:38:00;;;;;;;15.08;9.48;;;;;;;3.30;55.84;101160.86;1757801;80;21170;-55
2021/01/12 00:40:28;;;;;;;16.90;9.65;;;;;;;3.29;54.88;101151.10;1691593;84;21044;-58
2021/01/12 00:42:56;;;;;;;15.32;8.83;;;;;;;3.28;54.89;101154.00;1716443;83;21587;-54
2021/01/12 00:45:24;;;;;;;15.80;10.60;;;;;;;3.25;54.66;101149.86;1708738;84;20909;-53
2021/01/12 00:47:52;;;;;;;15.78;9.60;;;;;;;3.22;54.81;101152.11;1708894;84;21073;-56
2021/01/12 00:50:21;;;;;;;17.12;11.12;;;;;;;3.18;54.97;101148.14;1708855;83;21417;-55
2021/01/12 00:52:49;;;;;;;14.78;9.70;;;;;;;3.19;54.98;101143.08;1708898;82;22024;-57
2021/01/12 00:55:16;;;;;;;17.35;9.98;;;;;;;3.23;54.71;101151.07;1688331;83;21037;-53
2021/01/12 00:57:44;;;;;;;14.60;10.15;;;;;;;3.25;54.96;101149.86;1680233;85;21618;-54
2021/01/12 01:00:15;;;;;;;13.72;9.13;;;;;;;3.28;54.63;101141.89;1680443;85;20957;-52
2021/01/12 01:02:43;;;;;;;15.35;9.80;;;;;;;3.31;54.42;101143.69;1680291;85;21220;-54
2021/01/12 01:05:12;;;;;;;15.78;9.83;;;;;;;3.32;54.34;101149.89;1680352;85;20970;-50
2021/01/12 01:07:40;;;;;;;13.08;9.28;;;;;;;3.36;54.30;101148.47;1680415;85;21492;-52
2021/01/12 01:10:10;;;;;;;15.40;10.08;;;;;;;3.39;54.26;101149.41;1680470;85;21151;-55
2021/01/12 01:12:38;;;;;;;15.68;10.93;;;;;;;3.34;54.39;101150.00;1680437;85;21543;-52
2021/01/12 01:15:07;;;;;;;16.48;10.32;;;;;;;3.35;54.50;101144.95;1680325;85;21313;-53
2021/01/12 01:17:36;;;;;;;16.15;10.28;;;;;;;3.40;54.25;101152.44;1680328;85;21056;-51
2021/01/12 01:20:06;;;;;;;12.43;8.98;;;;;;;3.38;53.90;101152.61;1672633;85;20954;-52
2021/01/12 01:22:33;;;;;;;14.47;9.28;;;;;;;3.32;53.61;101155.27;1668137;86;21104;-53
2021/01/12 01:25:02;;;;;;;15.13;9.23;;;;;;;3.27;53.47;101155.86;1668081;85;20958;-52
2021/01/12 01:27:34;;;;;;;14.60;9.40;;;;;;;3.24;53.34;101162.14;1668313;85;22302;-53
2021/01/12 01:30:04;;;;;;;14.83;9.20;;;;;;;3.23;53.37;101162.66;1667945;86;21520;-52
2021/01/12 01:32:31;;;;;;;13.05;7.85;;;;;;;3.24;53.35;101163.48;1667648;85;20958;-53
2021/01/12 01:34:59;;;;;;;14.28;9.43;;;;;;;3.26;52.99;101157.41;1667680;84;20966;-51
2021/01/12 01:37:26;;;;;;;13.62;8.40;;;;;;;3.29;52.89;101158.34;1667666;86;21041;-54
2021/01/12 01:39:54;;;;;;;15.00;9.95;;;;;;;3.32;52.67;101159.31;1667601;86;21270;-54
2021/01/12 01:42:22;;;;;;;16.12;10.75;;;;;;;3.31;52.68;101155.79;1667704;86;20998;-54
2021/01/12 01:44:50;;;;;;;18.80;11.68;;;;;;;3.32;52.75;101153.41;1667459;84;21028;-54
2021/01/12 01:47:18;;;;;;;19.65;12.93;;;;;;;3.32;52.87;101146.69;1667631;86;21091;-54
2021/01/12 01:49:46;;;;;;;19.05;13.50;;;;;;;3.32;53.09;101150.72;1667755;86;20966;-52
2021/01/12 01:52:14;;;;;;;22.15;13.72;;;;;;;3.32;53.16;101150.72;1667630;86;21203;-51
2021/01/12 01:54:42;;;;;;;22.58;15.45;;;;;;;3.31;53.29;101149.58;1667555;84;20965;-53
2021/01/12 01:57:09;;;;;;;33.35;19.57;;;;;;;3.31;53.58;101154.45;1667635;86;20978;-52
2021/01/12 01:59:39;;;;;;;31.80;18.55;;;;;;;3.33;53.75;101152.89;1667512;86;21036;-54
2021/01/12 02:02:07;;;;;;;35.33;19.50;;;;;;;3.37;53.79;101154.99;1667651;85;21180;-55
2021/01/12 02:04:38;;;;;;;37.67;23.15;;;;;;;3.34;53.69;101153.20;1667508;86;21328;-53
2021/01/12 02:07:06;;;;;;;30.17;17.92;;;;;;;3.25;53.80;101140.45;1667636;85;21676;-51
2021/01/12 02:09:40;;;;;;;23.55;14.23;;;;;;;3.29;53.87;101148.41;1667650;86;20990;-53
2021/01/12 02:12:12;;;;;;;19.90;12.58;;;;;;;3.30;53.61;101146.58;1667629;86;21182;-51
2021/01/12 02:14:41;;;;;;;22.05;13.43;;;;;;;3.28;53.39;101141.89;1667489;86;21058;-51
2021/01/12 02:17:09;;;;;;;26.12;15.08;;;;;;;3.28;53.52;101149.45;1639206;86;21219;-50
2021/01/12 02:19:39;;;;;;;27.80;14.93;;;;;;;3.32;53.57;101140.48;1667034;84;21020;-56
2021/01/12 02:22:07;;;;;;;23.55;13.78;;;;;;;3.34;53.84;101138.41;1666830;86;21101;-55
2021/01/12 02:24:35;;;;;;;21.02;13.10;;;;;;;3.42;54.00;101128.02;1639235;86;21096;-53
2021/01/12 02:27:05;;;;;;;19.45;12.47;;;;;;;3.47;53.87;101123.70;1667378;86;20978;-55
2021/01/12 02:29:33;;;;;;;19.30;11.57;;;;;;;3.51;53.75;101127.66;1667377;86;21455;-55
2021/01/12 02:32:01;;;;;;;20.55;11.88;;;;;;;3.52;53.73;101124.45;1667330;86;21692;-54
2021/01/12 02:34:29;;;;;;;17.57;11.97;;;;;;;3.52;53.70;101121.23;1638872;86;21037;-56
2021/01/12 02:36:57;;;;;;;15.53;10.70;;;;;;;3.53;53.58;101113.99;1667288;86;21072;-53
2021/01/12 02:39:25;;;;;;;15.65;10.05;;;;;;;3.50;53.61;101099.61;1617363;86;21216;-55
2021/01/12 02:41:53;;;;;;;13.20;10.35;;;;;;;3.53;53.03;101114.82;1667457;85;22935;-52
2021/01/12 02:44:24;;;;;;;15.75;10.25;;;;;;;3.52;53.10;101105.09;1667202;86;20962;-54
2021/01/12 02:46:54;;;;;;;15.78;9.88;;;;;;;3.46;52.85;101097.83;1667609;86;21497;-52
2021/01/12 02:49:23;;;;;;;15.03;10.05;;;;;;;3.39;52.97;101099.64;1667378;86;20954;-55
2021/01/12 02:51:51;;;;;;;15.95;10.72;;;;;;;3.32;53.18;101098.79;1667408;86;20946;-50
2021/01/12 02:54:18;;;;;;;16.70;11.20;;;;;;;3.31;53.44;101096.62;1667049;84;22051;-52
2021/01/12 02:56:46;;;;;;;15.95;10.68;;;;;;;3.39;53.31;101100.47;1667462;86;21017;-54
2021/01/12 02:59:14;;;;;;;15.60;9.75;;;;;;;3.46;52.99;101093.80;1667161;86;20958;-51
2021/01/12 03:01:42;;;;;;;12.63;9.00;;;;;;;3.49;52.95;101096.06;1667060;85;21088;-52
2021/01/12 03:04:10;;;;;;;13.00;8.70;;;;;;;3.46;52.68;101092.45;1667633;85;21616;-52
2021/01/12 03:06:38;;;;;;;13.13;9.95;;;;;;;3.44;52.64;101093.14;1667534;86;21342;-51
2021/01/12 03:09:06;;;;;;;16.42;10.10;;;;;;;3.42;52.60;101091.70;1667114;85;21130;-54
2021/01/12 03:11:33;;;;;;;17.35;9.45;;;;;;;3.42;52.70;101087.66;1667132;86;21037;-52
2021/01/12 03:14:01;;;;;;;16.70;10.43;;;;;;;3.44;52.83;101084.25;1667135;86;21774;-52
2021/01/12 03:16:33;;;;;;;16.52;10.25;;;;;;;3.46;52.75;101083.55;1667360;86;20961;-57
2021/01/12 03:19:02;;;;;;;15.43;10.75;;;;;;;3.50;52.65;101086.98;1667093;86;21429;-54
2021/01/12 03:21:32;;;;;;;18.07;10.58;;;;;;;3.44;52.66;101079.69;1667531;84;21523;-58
2021/01/12 03:23:59;;;;;;;16.32;10.18;;;;;;;3.47;52.70;101091.41;1667415;86;21152;-57
2021/01/12 03:26:27;;;;;;;14.90;9.00;;;;;;;3.46;52.51;101085.72;1667470;86;21578;-51
2021/01/12 03:28:55;;;;;;;16.07;9.95;;;;;;;3.47;52.31;101087.38;1667474;84;21096;-54
2021/01/12 03:31:23;;;;;;;14.78;8.85;;;;;;;3.48;52.29;101087.69;1667103;86;21410;-55
2021/01/12 03:33:51;;;;;;;16.05;9.60;;;;;;;3.48;52.12;101087.69;1706399;84;20915;-54
2021/01/12 03:36:20;;;;;;;16.10;10.23;;;;;;;3.53;52.06;101081.70;1713994;83;21566;-54
2021/01/12 03:38:47;;;;;;;13.65;9.00;;;;;;;3.56;51.95;101077.28;1713511;83;21663;-53
2021/01/12 03:41:15;;;;;;;14.28;9.48;;;;;;;3.56;52.02;101068.69;1713932;83;21032;-54
2021/01/12 03:43:43;;;;;;;17.40;10.10;;;;;;;3.55;52.04;101064.34;1713698;83;21356;-57
2021/01/12 03:46:13;;;;;;;20.27;9.23;;;;;;;3.56;52.04;101059.79;1713856;82;20949;-52
2021/01/12 03:48:41;;;;;;;16.65;10.23;;;;;;;3.49;52.09;101053.02;1713960;83;20962;-52
2021/01/12 03:51:08;;;;;;;14.98;9.30;;;;;;;3.43;52.33;101048.45;1713742;83;21115;-55
2021/01/12 03:53:37;;;;;;;15.95;10.13;;;;;;;3.41;52.41;101051.04;1713587;82;21131;-56
2021/01/12 03:56:06;;;;;;;16.37;10.43;;;;;;;3.36;52.72;101044.40;1714047;83;21579;-55
2021/01/12 03:58:36;;;;;;;16.87;10.70;;;;;;;3.34;52.94;101049.64;1713712;83;20945;-56
2021/01/12 04:01:05;;;;;;;16.42;10.28;;;;;;;3.32;53.24;101053.89;1713807;83;21457;-56
2021/01/12 04:03:32;;;;;;;16.97;10.60;;;;;;;3.31;53.57;101048.20;1713945;83;20982;-55
2021/01/12 04:06:02;;;;;;;19.80;12.23;;;;;;;3.33;54.00;101039.92;1714090;82;20918;-54
2021/01/12 04:08:30;;;;;;;18.60;11.35;;;;;;;3.37;54.24;101042.02;1713862;83;21436;-53
2021/01/12 04:10:58;;;;;;;18.12;11.60;;;;;;;3.40;54.47;101044.84;1713445;83;20973;-53
2021/01/12 04:13:27;;;;;;;18.62;11.50;;;;;;;3.38;54.86;101030.22;1714128;83;20962;-53
2021/01/12 04:15:55;;;;;;;20.85;13.35;;;;;;;3.41;55.27;101038.42;1713965;83;21024;-55
2021/01/12 04:18:22;;;;;;;20.55;12.82;;;;;;;3.44;55.53;101032.62;1714078;83;21111;-54
2021/01/12 04:20:50;;;;;;;21.85;12.88;;;;;;;3.42;55.85;101037.90;1716490;83;21558;-56
2021/01/12 04:23:18;;;;;;;16.37;11.10;;;;;;;3.39;56.25;101033.73;1719168;83;20945;-56
2021/01/12 04:25:45;;;;;;;21.48;12.90;;;;;;;3.32;56.63;101026.17;1719678;83;21060;-54
2021/01/12 04:28:13;;;;;;;23.52;14.75;;;;;;;3.35;56.88;101025.78;1719373;82;21488;-52
2021/01/12 04:30:41;;;;;;;21.10;14.13;;;;;;;3.37;57.18;101029.91;1719572;83;21052;-55
2021/01/12 04:33:09;;;;;;;24.20;14.07;;;;;;;3.41;57.40;101030.34;1719073;83;21385;-52
2021/01/12 04:35:38;;;;;;;23.98;13.72;;;;;;;3.41;57.57;101021.45;1719561;82;21190;-52
2021/01/12 04:38:05;;;;;;;23.62;13.10;;;;;;;3.38;57.78;101024.02;1719509;83;21627;-52
2021/01/12 04:40:33;;;;;;;20.40;13.13;;;;;;;3.38;57.91;101019.45;1719594;83;21064;-53
2021/01/12 04:43:01;;;;;;;23.87;14.55;;;;;;;3.38;58.07;101018.63;1719314;83;21483;-54
2021/01/12 04:45:29;;;;;;;22.13;14.03;;;;;;;3.37;58.21;101016.98;1719813;83;22213;-53
2021/01/12 04:47:57;;;;;;;24.70;13.08;;;;;;;3.37;58.37;101016.46;1719458;82;21037;-54
2021/01/12 04:50:25;;;;;;;22.15;13.25;;;;;;;3.32;58.48;101022.13;1719701;83;21195;-55
2021/01/12 04:52:52;;;;;;;22.07;12.80;;;;;;;3.31;58.71;101020.48;1719164;83;21489;-55
2021/01/12 04:55:20;;;;;;;24.37;13.32;;;;;;;3.30;58.76;101022.34;1719683;82;21084;-54
2021/01/12 04:57:50;;;;;;;18.67;12.20;;;;;;;3.29;58.90;101018.48;1719411;83;21214;-55
2021/01/12 05:00:29;;;;;;;22.22;13.75;;;;;;;3.27;58.92;101018.70;1719494;83;20978;-58
2021/01/12 05:03:03;;;;;;;20.50;12.90;;;;;;;3.21;59.04;101020.03;1719296;83;21144;-48
2021/01/12 05:05:39;;;;;;;13.67;8.67;;;;;;;3.21;59.08;101022.20;1718588;83;21251;-48
2021/01/12 05:08:13;;;;;;;20.77;12.98;;;;;;;3.22;59.04;101020.33;1719964;83;21843;-51
2021/01/12 05:10:42;;;;;;;18.80;12.15;;;;;;;3.20;59.07;101024.58;1719542;83;21216;-50
2021/01/12 05:13:12;;;;;;;21.80;12.18;;;;;;;3.22;59.05;101027.06;1716347;83;21143;-52
2021/01/12 05:15:40;;;;;;;21.17;13.53;;;;;;;3.22;58.94;101021.16;1706535;83;20989;-49
2021/01/12 05:18:10;;;;;;;27.37;15.23;;;;;;;3.19;58.92;101018.86;1705998;83;21255;-51
2021/01/12 05:20:44;;;;;;;32.93;14.63;;;;;;;3.16;59.03;101014.42;1698914;83;22712;-50
2021/01/12 05:23:14;;;;;;;34.03;15.40;;;;;;;3.13;59.06;101017.80;1690060;84;21341;-50
2021/01/12 05:25:42;;;;;;;25.97;14.18;;;;;;;3.12;59.11;101021.53;1689152;82;21623;-49
2021/01/12 05:28:13;;;;;;;27.65;14.80;;;;;;;3.11;59.04;101019.05;1692209;84;20970;-51
2021/01/12 05:30:41;;;;;;;25.57;13.90;;;;;;;3.05;59.10;101019.33;1686669;84;21002;-50
2021/01/12 05:33:09;;;;;;;23.85;12.37;;;;;;;3.06;59.16;101025.02;1632818;86;21196;-49
2021/01/12 05:35:40;;;;;;;22.32;12.58;;;;;;;3.08;59.21;101034.22;1674123;84;21335;-49
2021/01/12 05:38:09;;;;;;;17.37;12.00;;;;;;;3.09;59.21;101034.53;1669887;84;21655;-50
2021/01/12 05:40:38;;;;;;;19.67;11.60;;;;;;;3.07;59.02;101032.05;1676148;84;21002;-49
2021/01/12 05:43:13;;;;;;;17.30;11.88;;;;;;;3.04;59.03;101045.05;1692560;83;21776;-48
2021/01/12 05:45:43;;;;;;;19.12;11.88;;;;;;;2.98;59.14;101037.78;1695165;84;21053;-49
2021/01/12 05:48:11;;;;;;;17.27;10.80;;;;;;;2.95;59.03;101041.72;1706055;84;21351;-48
2021/01/12 05:50:40;;;;;;;17.45;11.38;;;;;;;2.89;59.09;101038.97;1693046;84;21172;-52
2021/01/12 05:53:15;;;;;;;18.45;11.08;;;;;;;2.85;59.13;101047.96;1694976;84;21152;-58
2021/01/12 05:55:44;;;;;;;17.15;10.48;;;;;;;2.79;59.07;101046.07;1703106;84;21497;-57
2021/01/12 05:58:18;;;;;;;17.85;11.50;;;;;;;2.73;59.21;101046.31;1692929;84;21710;-53
2021/01/12 06:00:48;;;;;;;20.85;12.13;;;;;;;2.65;59.48;101045.66;1668972;84;21864;-55
2021/01/12 06:03:17;;;;;;;20.12;11.05;;;;;;;2.65;59.71;101041.63;1691321;83;21036;-61
2021/01/12 06:05:46;;;;;;;19.07;12.45;;;;;;;2.65;59.72;101040.28;1692373;84;21160;-61
2021/01/12 06:08:14;;;;;;;18.48;12.15;;;;;;;2.67;59.81;101043.08;1702158;84;21156;-67
2021/01/12 06:10:44;;;;;;;18.45;11.68;;;;;;;2.67;59.89;101039.56;1704321;84;21184;-65
2021/01/12 06:13:17;;;;;;;17.20;10.43;;;;;;;2.66;59.95;101036.56;1632094;86;22241;-70
2021/01/12 06:15:48;;;;;;;18.70;11.55;;;;;;;2.67;60.05;101038.22;1705217;84;21135;-65
2021/01/12 06:18:17;;;;;;;17.48;10.90;;;;;;;2.59;59.98;101031.16;1706129;84;21124;-66
2021/01/12 06:21:05;;;;;;;16.75;11.53;;;;;;;2.56;60.07;101029.67;1706824;83;21571;-66
2021/01/12 06:23:51;;;;;;;18.27;12.20;;;;;;;2.53;60.21;101030.05;1712545;83;20941;-66
2021/01/12 06:26:18;;;;;;;11.85;7.37;;;;;;;2.55;60.35;101028.02;1701784;83;22591;-68
2021/01/12 06:28:46;;;;;;;15.43;10.28;;;;;;;2.54;60.21;101033.08;1701719;83;21143;-63
2021/01/12 06:31:14;;;;;;;17.80;11.25;;;;;;;2.51;60.23;101029.44;1701957;83;21496;-70
2021/01/12 06:33:42;;;;;;;20.43;11.00;;;;;;;2.47;60.38;101033.53;1700441;83;20938;-69
2021/01/12 06:36:10;;;;;;;21.05;11.33;;;;;;;2.49;60.31;101032.02;1702638;83;21099;-65
2021/01/12 06:38:39;;;;;;;17.15;10.82;;;;;;;2.46;60.31;101026.50;1650322;83;21405;-73
2021/01/12 06:41:08;;;;;;;15.32;10.23;;;;;;;2.46;60.29;101033.73;1669671;83;21571;-67
2021/01/12 06:43:36;;;;;;;15.95;9.78;;;;;;;2.47;60.30;101038.90;1671770;83;21231;-68
2021/01/12 06:46:06;;;;;;;19.00;11.50;;;;;;;2.51;60.12;101033.98;1701074;83;21049;-65
2021/01/12 06:48:43;;;;;;;21.45;12.43;;;;;;;2.51;59.84;101025.92;1699266;83;21489;-66
2021/01/12 06:51:13;;;;;;;19.90;11.88;;;;;;;2.46;59.83;101035.08;1698895;83;21379;-64
2021/01/12 06:53:47;;;;;;;19.65;11.55;;;;;;;2.46;59.84;101033.73;1697831;83;21178;-64
2021/01/12 06:56:17;;;;;;;20.37;12.05;;;;;;;2.45;59.83;101024.02;1699216;83;21599;-65
2021/01/12 06:58:45;;;;;;;17.32;10.55;;;;;;;2.45;59.87;101034.25;1650528;83;20993;-65
2021/01/12 07:01:22;;;;;;;17.50;9.48;;;;;;;2.46;59.83;101031.88;1699512;82;21097;-63
2021/01/12 07:03:51;;;;;;;16.67;9.83;;;;;;;2.44;59.49;101026.39;1698093;83;21215;-59
2021/01/12 07:06:25;;;;;;;13.85;9.28;;;;;;;2.39;59.22;101020.78;1670983;83;21181;-62
2021/01/12 07:08:55;;;;;;;12.93;8.63;;;;;;;2.36;59.11;101024.67;1698957;83;21029;-63
2021/01/12 07:11:23;;;;;;;14.80;9.63;;;;;;;2.38;58.83;101021.27;1697972;83;21195;-64
2021/01/12 07:13:52;;;;;;;13.20;8.75;;;;;;;2.34;58.78;101019.50;1699332;83;21175;-63
2021/01/12 07:16:19;;;;;;;15.25;10.25;;;;;;;2.31;58.68;101017.70;1699930;83;21498;-63
2021/01/12 07:18:59;;;;;;;14.43;8.90;;;;;;;2.29;58.77;101015.74;1670845;83;21119;-63
2021/01/12 07:21:30;;;;;;;13.55;8.83;;;;;;;2.29;58.81;101013.88;1699475;83;21631;-63
2021/01/12 07:24:04;;;;;;;17.10;9.00;;;;;;;2.28;58.68;101010.03;1714398;83;21606;-63
2021/01/12 07:26:33;;;;;;;13.55;8.33;;;;;;;2.23;58.50;101009.78;1706085;83;21505;-64
2021/01/12 07:29:06;;;;;;;14.30;9.20;;;;;;;2.21;58.35;101015.88;1704482;83;21439;-62
2021/01/12 07:31:34;;;;;;;11.35;7.42;;;;;;;2.17;58.19;101007.88;1703252;83;21647;-64
2021/01/12 07:34:02;;;;;;;14.35;8.80;;;;;;;2.14;58.00;101005.59;1705208;82;21084;-64
2021/01/12 07:36:34;;;;;;;16.30;9.70;;;;;;;2.11;58.11;101008.14;1718046;83;21168;-63
2021/01/12 07:39:01;;;;;;;15.53;10.68;;;;;;;2.14;58.19;101000.23;1719289;83;21139;-62
2021/01/12 07:41:29;;;;;;;11.60;8.80;;;;;;;2.13;58.22;100999.41;1719075;83;21238;-63
2021/01/12 07:43:59;;;;;;;15.13;9.55;;;;;;;2.10;58.46;101005.66;1718288;83;21139;-63
2021/01/12 07:46:27;;;;;;;14.25;9.53;;;;;;;2.12;58.66;101015.16;1713292;83;21186;-63
2021/01/12 07:48:56;;;;;;;14.43;10.10;;;;;;;2.23;58.73;101007.09;1707086;83;21135;-67
2021/01/12 07:51:27;;;;;;;17.42;10.78;;;;;;;2.34;58.68;101005.25;1660799;83;21093;-65
2021/01/12 07:53:55;;;;;;;15.53;10.53;;;;;;;2.40;58.61;101001.77;1707525;84;21547;-68
2021/01/12 07:56:23;;;;;;;15.28;10.35;;;;;;;2.40;58.65;101001.77;1708156;82;21167;-60
2021/01/12 07:58:51;;;;;;;15.90;10.70;;;;;;;2.37;58.73;101000.81;1718218;83;21053;-69
2021/01/12 08:01:26;;;;;;;15.90;9.95;;;;;;;2.36;58.86;100995.64;1691856;83;21232;-67
2021/01/12 08:03:53;;;;;;;16.60;10.85;;;;;;;2.36;58.93;100996.47;1718584;83;21131;-63
2021/01/12 08:06:21;;;;;;;13.15;9.50;;;;;;;2.40;59.04;101009.00;1719057;83;21236;-62
2021/01/12 08:08:57;;;;;;;14.13;10.18;;;;;;;2.36;58.89;100998.33;1718959;83;21163;-61
2021/01/12 08:11:26;;;;;;;17.62;10.35;;;;;;;2.25;59.10;100988.95;1719234;83;21056;-62
2021/01/12 08:14:09;;;;;;;17.50;11.38;;;;;;;2.27;59.41;100997.63;1719032;83;21210;-64
2021/01/12 08:16:37;;;;;;;14.33;9.20;;;;;;;2.33;59.30;100995.50;1719282;83;21092;-64
2021/01/12 08:19:05;;;;;;;16.85;11.65;;;;;;;2.34;59.24;100992.64;1719125;83;21223;-61
2021/01/12 08:21:41;;;;;;;20.50;11.00;;;;;;;2.31;59.33;100993.54;1716512;83;21250;-67
2021/01/12 08:24:08;;;;;;;16.05;10.63;;;;;;;2.27;59.17;100993.61;1705864;84;21187;-74
2021/01/12 08:26:45;;;;;;;15.50;9.05;;;;;;;2.23;59.30;100984.27;1698156;84;21204;-65
2021/01/12 08:29:20;;;;;;;14.18;9.88;;;;;;;2.20;59.08;100987.37;1677435;84;21202;-68
2021/01/12 08:32:06;;;;;;;13.43;8.70;;;;;;;2.16;58.56;100984.75;1768917;81;21340;-60
2021/01/12 08:34:59;;;;;;;13.88;9.10;;;;;;;2.15;58.33;100985.27;1769314;80;21148;-60
2021/01/12 08:37:27;;;;;;;16.23;9.65;;;;;;;2.12;58.09;100994.20;1769310;80;21570;-62
2021/01/12 08:39:57;;;;;;;15.48;10.78;;;;;;;2.04;57.89;100985.28;1769124;81;22080;-66
2021/01/12 08:42:26;;;;;;;17.52;11.28;;;;;;;2.02;57.93;100985.14;1769416;80;21158;-62
2021/01/12 08:44:55;;;;;;;16.82;10.43;;;;;;;2.05;58.00;100984.25;1769343;80;21376;-63
2021/01/12 08:47:26;;;;;;;20.82;10.63;;;;;;;2.13;57.94;100960.48;1769400;81;21163;-61
2021/01/12 08:50:03;;;;;;;18.45;11.45;;;;;;;2.19;57.68;100969.09;1764946;80;21082;-65
2021/01/12 08:52:31;;;;;;;21.87;10.60;;;;;;;2.19;57.49;100967.75;1762044;81;21667;-60
2021/01/12 08:55:00;;;;;;;17.00;9.63;;;;;;;2.18;57.48;100963.89;1698605;84;21136;-61
2021/01/12 08:57:29;;;;;;;17.92;11.20;;;;;;;2.18;57.36;100968.78;1709679;82;21472;-61
2021/01/12 08:59:57;;;;;;;16.73;10.50;;;;;;;2.18;57.24;100972.80;1701117;84;21208;-61
2021/01/12 09:02:26;;;;;;;16.73;10.72;;;;;;;2.24;57.25;100973.88;1687297;83;21610;-60
2021/01/12 09:05:00;;;;;;;17.60;10.23;;;;;;;2.28;57.00;100971.09;1709111;84;21142;-61
2021/01/12 09:07:28;;;;;;;16.85;10.85;;;;;;;2.31;56.94;100972.88;1726150;82;21124;-61
2021/01/12 09:09:56;;;;;;;18.73;10.10;;;;;;;2.35;56.81;100962.59;1728982;82;21350;-62
2021/01/12 09:12:24;;;;;;;19.48;10.93;;;;;;;2.38;56.49;100978.30;1726500;81;21196;-59
2021/01/12 09:14:52;;;;;;;15.30;9.78;;;;;;;2.37;56.31;100974.47;1724738;82;21056;-61
2021/01/12 09:17:21;;;;;;;15.20;9.33;;;;;;;2.32;56.18;100968.34;1730001;82;21045;-61
2021/01/12 09:19:52;;;;;;;18.48;10.70;;;;;;;2.32;56.25;100968.34;1731627;82;21575;-60
2021/01/12 09:22:20;;;;;;;14.30;9.13;;;;;;;2.39;56.18;100955.81;1731001;82;21374;-60
2021/01/12 09:24:54;;;;;;;14.18;8.55;;;;;;;2.44;55.42;100960.08;1731521;82;21187;-61
2021/01/12 09:27:29;;;;;;;15.95;9.33;;;;;;;2.41;54.81;100952.91;1731484;82;21191;-60
2021/01/12 09:29:57;;;;;;;15.63;9.53;;;;;;;2.33;54.82;100939.11;1732123;82;21626;-61
2021/01/12 09:32:34;;;;;;;17.52;9.90;;;;;;;2.29;54.66;100943.24;1736149;82;21205;-61
2021/01/12 09:35:10;;;;;;;15.18;8.20;;;;;;;2.30;54.95;100944.38;1697955;84;21222;-59
2021/01/12 09:37:38;;;;;;;11.95;7.42;;;;;;;2.35;54.47;100937.08;1660023;85;21089;-60
2021/01/12 09:40:10;;;;;;;14.90;9.08;;;;;;;2.38;54.52;100933.16;1670145;85;21228;-64
2021/01/12 09:42:38;;;;;;;16.97;9.28;;;;;;;2.39;54.52;100932.16;1698129;84;21133;-61
2021/01/12 09:45:10;;;;;;;13.98;8.80;;;;;;;2.43;54.47;100927.50;1629947;84;21053;-61
2021/01/12 09:47:38;;;;;;;18.15;9.75;;;;;;;2.53;54.35;100925.80;1697833;84;21381;-58
2021/01/12 09:50:07;;;;;;;17.42;8.60;;;;;;;2.56;54.19;100915.50;1685130;85;22021;-59
2021/01/12 09:52:35;;;;;;;14.58;8.85;;;;;;;2.55;53.76;100903.11;1669617;86;21097;-59
2021/01/12 09:55:04;;;;;;;15.60;9.58;;;;;;;2.50;53.85;100897.50;1685615;85;21176;-60
2021/01/12 09:57:36;;;;;;;12.53;7.78;;;;;;;2.46;53.94;100893.55;1669899;85;21089;-60
2021/01/12 10:00:08;;;;;;;12.80;7.70;;;;;;;2.49;53.81;100887.80;1686003;85;21437;-60
2021/01/12 10:02:40;;;;;;;11.53;7.50;;;;;;;2.48;53.74;100887.45;1669979;85;21161;-60
2021/01/12 10:05:09;;;;;;;13.80;8.15;;;;;;;2.50;53.89;100874.67;1685258;85;21144;-60
2021/01/12 10:07:44;;;;;;;13.93;7.67;;;;;;;2.52;53.81;100871.77;1645165;85;21632;-62
2021/01/12 10:10:13;;;;;;;18.23;9.05;;;;;;;2.51;53.84;100885.72;1683551;84;20957;-60
2021/01/12 10:12:41;;;;;;;16.32;8.48;;;;;;;2.49;53.92;100873.02;1697930;83;22039;-60
2021/01/12 10:15:10;;;;;;;18.70;9.15;;;;;;;2.46;53.88;100862.66;1685579;84;21135;-60
2021/01/12 10:17:38;;;;;;;16.90;9.43;;;;;;;2.43;54.16;100854.16;1699162;83;21161;-60
2021/01/12 10:20:07;;;;;;;15.20;8.95;;;;;;;2.45;54.38;100853.47;1655025;85;21228;-60
2021/01/12 10:22:37;;;;;;;15.45;7.83;;;;;;;2.48;54.19;100840.45;1684193;83;21251;-61
2021/01/12 10:25:10;;;;;;;13.05;8.13;;;;;;;2.51;54.04;100835.20;1685598;84;21386;-61
2021/01/12 10:27:41;;;;;;;17.65;8.75;;;;;;;2.51;53.88;100832.00;1686690;84;21178;-61
2021/01/12 10:30:11;;;;;;;20.23;8.80;;;;;;;2.49;53.88;100826.53;1694323;83;21683;-60
2021/01/12 10:32:44;;;;;;;18.30;9.70;;;;;;;2.48;53.86;100818.14;1671943;85;21535;-60
2021/01/12 10:35:12;;;;;;;16.65;9.03;;;;;;;2.53;53.96;100803.59;1635036;86;21072;-60
2021/01/12 10:37:43;;;;;;;15.65;8.20;;;;;;;2.59;53.80;100796.92;1637485;86;22254;-61
2021/01/12 10:40:13;;;;;;;15.10;8.15;;;;;;;2.65;53.54;100795.80;1664448;86;21603;-63
2021/01/12 10:42:43;;;;;;;12.00;7.70;;;;;;;2.66;53.46;100792.07;1665228;86;21121;-59
2021/01/12 10:45:14;;;;;;;12.75;6.85;;;;;;;2.66;53.37;100786.70;1665203;86;21238;-59
2021/01/12 10:47:43;;;;;;;11.73;6.37;;;;;;;2.68;52.92;100784.62;1665288;86;21085;-61
2021/01/12 10:50:18;;;;;;;9.75;6.30;;;;;;;2.62;52.78;100790.30;1664540;86;21258;-65
2021/01/12 10:52:45;;;;;;;11.55;6.60;;;;;;;2.57;52.91;100786.88;1660765;86;21091;-59
2021/01/12 10:55:14;;;;;;;13.40;6.62;;;;;;;2.53;53.06;100786.95;1663878;86;21121;-61
2021/01/12 10:57:44;;;;;;;11.65;6.35;;;;;;;2.57;53.03;100791.42;1663717;84;21238;-60
2021/01/12 11:00:16;;;;;;;13.13;7.22;;;;;;;2.58;52.88;100799.78;1664427;86;21224;-60
2021/01/12 11:02:56;;;;;;;12.50;6.73;;;;;;;2.62;53.22;100788.12;1869019;75;22693;-63
2021/01/12 11:05:24;;;;;;;9.98;6.37;;;;;;;2.63;52.99;100795.98;1840197;77;20951;-60
2021/01/12 11:07:52;;;;;;;14.47;7.90;;;;;;;2.64;52.88;100799.52;1855404;77;21564;-60
2021/01/12 11:10:21;;;;;;;13.40;7.22;;;;;;;2.64;53.24;100793.63;1851844;77;21554;-61
2021/01/12 11:12:50;;;;;;;8.85;5.50;;;;;;;2.74;53.14;100793.25;1803055;78;21064;-60
2021/01/12 11:15:19;;;;;;;8.58;5.53;;;;;;;2.79;52.71;100792.13;1758322;80;20961;-62
2021/01/12 11:17:48;;;;;;;12.98;6.30;;;;;;;2.75;52.11;100790.86;1797097;78;21013;-60
2021/01/12 11:20:18;;;;;;;8.30;5.17;;;;;;;2.68;52.42;100796.72;1765469;80;21385;-61
2021/01/12 11:22:46;;;;;;;8.88;5.87;;;;;;;2.66;52.13;100794.77;1790442;80;21088;-60
2021/01/12 11:25:14;;;;;;;10.05;6.08;;;;;;;2.60;52.42;100790.51;1790444;80;20934;-61
2021/01/12 11:27:43;;;;;;;8.05;5.12;;;;;;;2.60;52.23;100785.13;1790483;79;20960;-60
2021/01/12 11:30:13;;;;;;;9.70;5.47;;;;;;;2.51;52.27;100775.59;1790076;80;21560;-62
2021/01/12 11:32:44;;;;;;;11.65;5.30;;;;;;;2.44;52.52;100781.47;1790546;80;21424;-59
2021/01/12 11:35:15;;;;;;;9.88;5.30;;;;;;;2.41;52.55;100774.32;1790468;80;21508;-61